Time;durP1;ratioP1;P1;durP2;ratioP2;P2;SDS_P1;SDS_P2;PMS_P1;PMS_P2;Temp;Humidity;BMP_temperature;BMP_pressure;BME280_temperature;BME280_humidity;BME280_pressure;Samples;Min_cycle;Max_cycle;Signal;HPM_P1;HPM_P2
2023/07/25 00:00:52;;;;;;;6.27;5.20;;;18.20;99.40;;;;;;5076857;28;20474;-62
2023/07/25 00:03:19;;;;;;;9.43;7.23;;;18.20;99.50;;;;;;5073505;28;20481;-62
2023/07/25 00:05:46;;;;;;;20.63;10.33;;;18.20;99.50;;;;;;5058331;28;20478;-62
2023/07/25 00:08:13;;;;;;;10.10;6.13;;;18.20;99.40;;;;;;5058139;28;21208;-62
2023/07/25 00:10:41;;;;;;;8.83;7.17;;;18.10;99.60;;;;;;5073804;28;20482;-62
2023/07/25 00:13:08;;;;;;;8.13;6.60;;;17.90;99.90;;;;;;5036513;28;20514;-62
2023/07/25 00:15:35;;;;;;;8.03;6.40;;;17.80;99.90;;;;;;5069394;28;20486;-62
2023/07/25 00:18:02;;;;;;;11.57;6.90;;;17.80;99.90;;;;;;5072204;28;21257;-62
2023/07/25 00:20:29;;;;;;;6.90;5.57;;;17.90;99.90;;;;;;5075952;28;20790;-62
2023/07/25 00:22:55;;;;;;;17.47;7.10;;;17.80;99.90;;;;;;5066284;28;20732;-62
2023/07/25 00:25:23;;;;;;;9.03;7.10;;;17.90;99.80;;;;;;5069623;28;20475;-62
2023/07/25 00:27:51;;;;;;;11.60;8.53;;;18.10;99.70;;;;;;5074629;28;20496;-62
2023/07/25 00:30:18;;;;;;;7.93;5.77;;;18.00;99.80;;;;;;5077544;28;20557;-61
2023/07/25 00:32:45;;;;;;;15.63;9.70;;;17.90;99.90;;;;;;5059183;28;20492;-62
2023/07/25 00:35:11;;;;;;;13.03;8.63;;;17.70;99.90;;;;;;5061658;28;22028;-62
2023/07/25 00:37:38;;;;;;;13.20;9.47;;;17.60;99.90;;;;;;5074627;28;20497;-61
2023/07/25 00:40:06;;;;;;;8.20;6.27;;;17.50;99.90;;;;;;5074158;28;20482;-62
2023/07/25 00:42:33;;;;;;;6.90;5.67;;;17.40;99.90;;;;;;5035371;28;20484;-62
2023/07/25 00:45:01;;;;;;;11.20;8.20;;;17.30;99.90;;;;;;5061730;28;20484;-61
2023/07/25 00:47:28;;;;;;;11.00;7.87;;;17.20;99.90;;;;;;5071780;28;20474;-61
2023/07/25 00:49:55;;;;;;;9.43;6.73;;;17.10;99.90;;;;;;5067104;28;20470;-62
2023/07/25 00:52:22;;;;;;;15.40;6.63;;;17.10;99.90;;;;;;5069649;28;21500;-61
2023/07/25 00:54:51;;;;;;;15.00;9.93;;;16.90;99.90;;;;;;5072963;28;20575;-62
2023/07/25 00:57:19;;;;;;;16.33;8.03;;;17.00;99.90;;;;;;5016651;28;20613;-62
2023/07/25 00:59:47;;;;;;;13.13;9.20;;;17.10;99.90;;;;;;5075395;28;20814;-62
2023/07/25 01:02:16;;;;;;;9.30;6.30;;;17.20;99.90;;;;;;5070706;28;20485;-62
2023/07/25 01:04:43;;;;;;;17.43;11.63;;;17.40;99.90;;;;;;5075563;28;20481;-62
2023/07/25 01:07:13;;;;;;;8.43;6.50;;;17.50;99.90;;;;;;5006129;28;20610;-62
2023/07/25 01:09:41;;;;;;;10.37;6.93;;;17.60;99.90;;;;;;5069845;28;20772;-62
2023/07/25 01:12:09;;;;;;;9.70;6.90;;;17.80;99.90;;;;;;5055361;28;20489;-62
2023/07/25 01:14:37;;;;;;;16.27;11.20;;;17.90;99.90;;;;;;5063541;28;20477;-62
2023/07/25 01:17:08;;;;;;;8.13;5.73;;;18.40;99.90;;;;;;5070760;28;20477;-62
2023/07/25 01:19:39;;;;;;;11.70;8.23;;;18.20;99.90;;;;;;5043125;28;20482;-63
2023/07/25 01:22:07;;;;;;;8.83;6.40;;;18.20;99.90;;;;;;5072335;28;20943;-62
2023/07/25 01:24:35;;;;;;;15.57;6.80;;;18.20;99.90;;;;;;5038626;28;20479;-62
2023/07/25 01:27:02;;;;;;;8.20;6.57;;;18.20;99.90;;;;;;5069484;28;20484;-62
2023/07/25 01:29:29;;;;;;;8.90;6.63;;;18.20;99.90;;;;;;5067638;28;20481;-62
2023/07/25 01:31:56;;;;;;;11.53;6.80;;;18.20;99.90;;;;;;5070223;28;20478;-62
2023/07/25 01:34:23;;;;;;;10.77;6.83;;;18.10;99.90;;;;;;5053095;28;20491;-62
2023/07/25 01:36:50;;;;;;;9.97;7.80;;;18.00;99.90;;;;;;5027590;28;20470;-63
2023/07/25 01:39:16;;;;;;;10.57;6.47;;;18.00;99.90;;;;;;5072981;28;20474;-62
2023/07/25 01:41:45;;;;;;;15.07;9.13;;;17.70;99.90;;;;;;5073958;28;20915;-62
2023/07/25 01:44:12;;;;;;;9.47;6.30;;;17.70;99.90;;;;;;5073926;28;20474;-62
2023/07/25 01:46:40;;;;;;;14.83;10.57;;;19.20;99.90;;;;;;5042015;28;20481;-63
2023/07/25 01:49:07;;;;;;;8.17;6.33;;;17.80;99.90;;;;;;5063084;28;20485;-62
2023/07/25 01:51:34;;;;;;;10.80;7.50;;;18.00;99.90;;;;;;5072106;28;21188;-62
2023/07/25 01:54:01;;;;;;;9.40;6.23;;;17.90;99.90;;;;;;5068853;28;20474;-62
2023/07/25 01:56:28;;;;;;;10.67;5.53;;;18.10;99.90;;;;;;5067372;28;20948;-62
2023/07/25 01:58:56;;;;;;;17.73;6.33;;;18.00;99.90;;;;;;5069447;28;20480;-63
2023/07/25 02:01:23;;;;;;;9.50;6.10;;;17.90;99.90;;;;;;5036043;28;21057;-62
2023/07/25 02:03:49;;;;;;;9.47;7.13;;;17.90;99.90;;;;;;5063944;28;20817;-62
2023/07/25 02:06:16;;;;;;;10.53;7.13;;;17.90;99.90;;;;;;5066606;28;20474;-62
2023/07/25 02:08:43;;;;;;;14.03;9.00;;;17.90;99.90;;;;;;5070247;28;20563;-62
2023/07/25 02:11:10;;;;;;;12.60;7.70;;;17.90;99.90;;;;;;5072386;28;20853;-62
2023/07/25 02:13:37;;;;;;;10.57;7.27;;;17.90;99.90;;;;;;5070469;28;20470;-62
2023/07/25 02:16:05;;;;;;;9.47;7.00;;;17.80;99.90;;;;;;5043292;28;20475;-62
2023/07/25 02:18:33;;;;;;;7.97;6.40;;;17.90;99.90;;;;;;5045193;28;20470;-62
2023/07/25 02:21:00;;;;;;;12.93;6.50;;;17.90;99.90;;;;;;5071707;28;20470;-62
2023/07/25 02:23:27;;;;;;;9.10;6.80;;;18.00;99.90;;;;;;5070228;28;20810;-62
2023/07/25 02:25:54;;;;;;;13.40;6.97;;;18.00;99.90;;;;;;5070416;28;20869;-62
2023/07/25 02:28:21;;;;;;;10.30;6.57;;;18.00;99.90;;;;;;5074215;28;21131;-62
2023/07/25 02:30:48;;;;;;;10.43;7.27;;;18.10;99.90;;;;;;5073877;28;20482;-63
2023/07/25 02:33:16;;;;;;;13.77;7.67;;;18.00;99.90;;;;;;5073744;28;21000;-62
2023/07/25 02:35:43;;;;;;;18.23;11.00;;;18.00;99.90;;;;;;5065403;28;20541;-62
2023/07/25 02:38:10;;;;;;;11.80;7.40;;;18.00;99.90;;;;;;5074848;28;20652;-62
2023/07/25 02:40:37;;;;;;;15.60;8.47;;;18.00;99.90;;;;;;5057677;28;20585;-61
2023/07/25 02:43:07;;;;;;;9.07;6.43;;;17.80;99.90;;;;;;5042423;28;20473;-62
2023/07/25 02:45:34;;;;;;;12.87;8.57;;;17.50;99.90;;;;;;5053269;28;20794;-61
2023/07/25 02:48:01;;;;;;;11.77;8.13;;;17.50;99.90;;;;;;5046222;28;20490;-62
2023/07/25 02:50:29;;;;;;;13.67;6.90;;;17.50;99.90;;;;;;5044306;28;20557;-62
2023/07/25 02:52:56;;;;;;;10.87;7.50;;;17.40;99.90;;;;;;5070958;28;20504;-62
2023/07/25 02:55:23;;;;;;;17.30;7.83;;;17.40;99.90;;;;;;5070081;28;20466;-62
2023/07/25 02:57:50;;;;;;;13.27;9.13;;;17.20;99.90;;;;;;5071244;28;20481;-61
2023/07/25 03:00:17;;;;;;;9.23;6.70;;;17.20;99.90;;;;;;5076329;28;21151;-61
2023/07/25 03:02:44;;;;;;;14.53;9.80;;;17.20;99.90;;;;;;5048395;28;20474;-61
2023/07/25 03:05:11;;;;;;;13.23;8.73;;;17.30;99.90;;;;;;5048036;28;20487;-61
2023/07/25 03:07:39;;;;;;;19.23;10.83;;;17.40;99.90;;;;;;5039384;28;20481;-62
2023/07/25 03:10:07;;;;;;;12.20;7.80;;;17.40;99.90;;;;;;5065733;28;20469;-62
2023/07/25 03:12:34;;;;;;;14.73;8.17;;;17.50;99.90;;;;;;5072842;28;20524;-62
2023/07/25 03:15:01;;;;;;;11.03;7.90;;;17.50;99.90;;;;;;5060169;28;21110;-61
2023/07/25 03:17:28;;;;;;;12.00;8.23;;;17.60;99.90;;;;;;5042447;28;20540;-62
2023/07/25 03:19:55;;;;;;;8.30;5.90;;;17.60;99.90;;;;;;5065569;28;20536;-62
2023/07/25 03:22:22;;;;;;;14.30;7.33;;;17.60;99.90;;;;;;5047553;28;20887;-62
2023/07/25 03:24:50;;;;;;;15.73;10.73;;;17.60;99.90;;;;;;5054580;28;20508;-62
2023/07/25 03:27:18;;;;;;;13.17;7.93;;;17.60;99.90;;;;;;5067751;28;20998;-62
2023/07/25 03:29:45;;;;;;;13.80;9.23;;;17.60;99.90;;;;;;5072583;28;20474;-61
2023/07/25 03:32:12;;;;;;;9.40;7.20;;;17.60;99.90;;;;;;5073103;28;20569;-62
2023/07/25 03:34:39;;;;;;;17.47;11.90;;;17.60;99.90;;;;;;5068994;28;20579;-61
2023/07/25 03:37:06;;;;;;;10.20;7.07;;;17.40;99.90;;;;;;5073161;28;20698;-62
2023/07/25 03:39:34;;;;;;;13.30;6.50;;;17.40;99.90;;;;;;5050189;28;20999;-61
2023/07/25 03:42:02;;;;;;;16.83;8.77;;;17.40;99.90;;;;;;5075962;28;21057;-61
2023/07/25 03:44:30;;;;;;;11.67;7.00;;;17.50;99.90;;;;;;5058629;28;20498;-61
2023/07/25 03:46:57;;;;;;;10.03;7.13;;;17.50;99.90;;;;;;5068525;28;20482;-62
2023/07/25 03:49:24;;;;;;;10.70;6.70;;;17.40;99.90;;;;;;5075364;28;20855;-61
2023/07/25 03:51:51;;;;;;;12.83;9.13;;;17.40;99.90;;;;;;5067801;28;20844;-61
2023/07/25 03:54:21;;;;;;;13.90;8.10;;;17.40;99.90;;;;;;5074198;28;20939;-61
2023/07/25 03:56:48;;;;;;;17.83;10.10;;;17.50;99.90;;;;;;5074286;28;20573;-61
2023/07/25 03:59:16;;;;;;;15.90;10.03;;;17.50;99.90;;;;;;5075357;28;21057;-62
2023/07/25 04:01:44;;;;;;;14.23;10.17;;;17.50;99.90;;;;;;5073222;28;20813;-61
2023/07/25 04:04:11;;;;;;;12.20;8.53;;;17.50;99.90;;;;;;5059576;28;20618;-62
2023/07/25 04:06:40;;;;;;;15.00;9.93;;;17.50;99.90;;;;;;5056900;28;20565;-61
2023/07/25 04:09:07;;;;;;;11.30;8.00;;;17.70;99.90;;;;;;5041319;28;20836;-61
2023/07/25 04:11:34;;;;;;;9.97;6.70;;;17.60;99.90;;;;;;5070958;28;20977;-61
2023/07/25 04:14:02;;;;;;;15.27;8.70;;;17.60;99.90;;;;;;5074622;28;20480;-61
2023/07/25 04:16:30;;;;;;;13.87;7.87;;;17.10;99.90;;;;;;5074356;28;21459;-61
2023/07/25 04:18:57;;;;;;;14.57;8.60;;;17.50;99.90;;;;;;5073745;28;20474;-61
2023/07/25 04:21:24;;;;;;;14.60;8.10;;;17.60;99.90;;;;;;5075934;28;20485;-62
2023/07/25 04:23:51;;;;;;;14.83;8.10;;;17.50;99.90;;;;;;5068989;28;20547;-61
2023/07/25 04:26:18;;;;;;;13.67;7.87;;;17.60;99.90;;;;;;5067595;28;20488;-62
2023/07/25 04:28:48;;;;;;;17.17;10.70;;;18.00;99.90;;;;;;5064702;28;20492;-61
2023/07/25 04:31:15;;;;;;;17.97;9.10;;;17.60;99.90;;;;;;5072058;28;20497;-61
2023/07/25 04:33:43;;;;;;;17.00;10.60;;;18.70;99.90;;;;;;5074608;28;20478;-61
2023/07/25 04:36:10;;;;;;;12.00;8.10;;;17.80;99.90;;;;;;5066508;28;20481;-61
2023/07/25 04:38:37;;;;;;;13.53;8.50;;;17.90;99.90;;;;;;5047774;28;20475;-61
2023/07/25 04:41:03;;;;;;;13.50;8.70;;;17.80;99.90;;;;;;5057918;28;20925;-61
2023/07/25 04:43:30;;;;;;;7.97;6.20;;;17.80;99.90;;;;;;5074570;28;20474;-61
2023/07/25 04:45:57;;;;;;;13.07;7.20;;;17.80;99.90;;;;;;5068029;28;20862;-61
2023/07/25 04:48:24;;;;;;;8.70;6.80;;;17.90;99.90;;;;;;5074757;28;20485;-61
2023/07/25 04:50:52;;;;;;;11.97;8.20;;;17.90;99.90;;;;;;5059294;28;21011;-61
2023/07/25 04:53:19;;;;;;;9.03;6.80;;;17.90;99.90;;;;;;5048790;28;20473;-61
2023/07/25 04:55:46;;;;;;;20.80;10.63;;;17.90;99.90;;;;;;5065758;28;20935;-60
2023/07/25 04:58:13;;;;;;;13.10;7.00;;;17.90;99.90;;;;;;5042283;28;20486;-61
2023/07/25 05:00:39;;;;;;;17.43;10.50;;;17.80;99.90;;;;;;5036357;28;20495;-61
2023/07/25 05:03:06;;;;;;;8.67;6.20;;;17.80;99.90;;;;;;5072218;28;20482;-61
2023/07/25 05:05:33;;;;;;;11.80;8.03;;;17.90;99.90;;;;;;5060310;28;20476;-61
2023/07/25 05:08:01;;;;;;;13.33;7.30;;;17.80;99.90;;;;;;5050029;28;20474;-61
2023/07/25 05:10:28;;;;;;;11.03;8.03;;;17.80;99.90;;;;;;5073415;28;20474;-61
2023/07/25 05:12:55;;;;;;;8.63;6.50;;;17.70;99.90;;;;;;5071056;28;20486;-61
2023/07/25 05:15:22;;;;;;;12.63;7.60;;;17.80;99.90;;;;;;5061048;28;20474;-61
2023/07/25 05:17:49;;;;;;;13.53;9.40;;;17.80;99.90;;;;;;5052674;28;20486;-61
2023/07/25 05:20:16;;;;;;;23.20;7.27;;;17.80;99.90;;;;;;5055473;28;20568;-61
2023/07/25 05:22:43;;;;;;;15.70;10.50;;;17.80;99.90;;;;;;5062212;28;20512;-61
2023/07/25 05:25:11;;;;;;;10.87;7.53;;;17.80;99.90;;;;;;5050692;28;20488;-61
2023/07/25 05:27:38;;;;;;;15.43;10.17;;;17.80;99.90;;;;;;5068969;28;20494;-61
2023/07/25 05:30:06;;;;;;;7.43;6.27;;;17.80;99.90;;;;;;5069488;28;21001;-61
2023/07/25 05:32:34;;;;;;;13.93;7.40;;;17.80;99.90;;;;;;5069201;28;20465;-61
2023/07/25 05:35:01;;;;;;;10.93;7.80;;;17.80;99.90;;;;;;5028619;28;20532;-61
2023/07/25 05:37:35;;;;;;;8.33;7.00;;;17.90;99.90;;;;;;5061405;28;21112;-61
2023/07/25 05:40:02;;;;;;;9.00;6.77;;;17.90;99.90;;;;;;5058553;28;20840;-61
2023/07/25 05:42:31;;;;;;;14.33;8.70;;;17.90;99.90;;;;;;5051659;28;20505;-61
2023/07/25 05:44:59;;;;;;;9.80;6.97;;;17.90;99.90;;;;;;5035044;28;20475;-61
2023/07/25 05:47:26;;;;;;;13.33;8.17;;;17.90;99.90;;;;;;5047761;28;20877;-61
2023/07/25 05:49:53;;;;;;;12.23;8.53;;;17.90;99.90;;;;;;5069197;28;20473;-61
2023/07/25 05:52:20;;;;;;;12.07;8.00;;;18.00;99.90;;;;;;5073363;28;20958;-61
2023/07/25 05:54:48;;;;;;;15.60;9.87;;;18.10;99.90;;;;;;5059484;28;20990;-61
2023/07/25 05:57:16;;;;;;;8.70;6.27;;;18.10;99.90;;;;;;5049620;28;20482;-61
2023/07/25 05:59:44;;;;;;;19.70;12.90;;;19.60;99.90;;;;;;5058154;28;20477;-61
2023/07/25 06:02:11;;;;;;;7.80;6.73;;;18.30;99.90;;;;;;5062296;28;20474;-62
2023/07/25 06:04:38;;;;;;;20.00;11.47;;;18.30;99.90;;;;;;5064378;28;20489;-62
2023/07/25 06:07:06;;;;;;;13.90;8.47;;;18.20;99.90;;;;;;5068541;28;20473;-61
2023/07/25 06:09:33;;;;;;;16.43;8.80;;;18.20;99.90;;;;;;5068248;28;20508;-62
2023/07/25 06:12:00;;;;;;;12.33;8.10;;;18.00;99.90;;;;;;5072673;28;20500;-63
2023/07/25 06:14:27;;;;;;;8.00;6.37;;;18.00;99.90;;;;;;5043438;28;20478;-62
2023/07/25 06:16:55;;;;;;;15.70;7.43;;;18.00;99.90;;;;;;5028529;28;20835;-62
2023/07/25 06:19:22;;;;;;;11.37;7.13;;;18.00;99.90;;;;;;5059107;28;20681;-62
2023/07/25 06:21:49;;;;;;;10.93;8.97;;;18.00;99.90;;;;;;5056991;28;20495;-62
2023/07/25 06:24:16;;;;;;;15.03;7.50;;;18.00;99.90;;;;;;5061444;28;20478;-63
2023/07/25 06:26:43;;;;;;;14.03;10.37;;;18.20;99.90;;;;;;5059678;28;20481;-62
2023/07/25 06:29:10;;;;;;;10.80;7.63;;;18.20;99.90;;;;;;5046338;28;20566;-61
2023/07/25 06:31:37;;;;;;;13.50;9.60;;;18.20;99.90;;;;;;5061934;28;20493;-63
2023/07/25 06:34:37;;;;;;;11.70;7.03;;;21.90;99.90;;;;;;5063070;28;20493;-62
2023/07/25 06:37:04;;;;;;;10.73;8.73;;;18.30;99.90;;;;;;5064860;28;20474;-63
2023/07/25 06:39:30;;;;;;;11.47;8.30;;;18.40;99.90;;;;;;5052126;28;20841;-63
2023/07/25 06:41:57;;;;;;;9.77;7.20;;;18.40;99.90;;;;;;5055694;28;20478;-63
2023/07/25 06:44:24;;;;;;;7.17;6.40;;;18.60;99.90;;;;;;5057919;28;20485;-63
2023/07/25 06:46:50;;;;;;;10.37;7.43;;;18.60;99.90;;;;;;5053196;28;20856;-63
2023/07/25 06:49:17;;;;;;;12.17;8.57;;;18.70;99.90;;;;;;5043466;28;20469;-62
2023/07/25 06:51:45;;;;;;;14.70;10.57;;;18.70;99.90;;;;;;5050289;28;20254;-63
2023/07/25 06:54:12;;;;;;;10.30;8.23;;;18.70;99.90;;;;;;5049278;28;20537;-62
2023/07/25 06:56:39;;;;;;;16.87;9.97;;;18.60;99.90;;;;;;5065166;28;20481;-62
2023/07/25 06:59:06;;;;;;;11.80;8.83;;;18.70;99.90;;;;;;5037126;28;20466;-63
2023/07/25 07:01:32;;;;;;;9.03;6.97;;;18.70;99.90;;;;;;5061781;28;20931;-62
2023/07/25 07:03:59;;;;;;;10.77;6.13;;;19.50;99.90;;;;;;5063359;28;20769;-62
2023/07/25 07:06:26;;;;;;;13.20;5.87;;;18.60;99.90;;;;;;5065547;28;20481;-62
2023/07/25 07:08:54;;;;;;;8.60;6.20;;;18.70;99.90;;;;;;5069268;28;20823;-62
2023/07/25 07:11:21;;;;;;;7.50;6.40;;;18.70;99.90;;;;;;5072365;28;20493;-62
2023/07/25 07:13:49;;;;;;;9.90;7.80;;;18.70;99.90;;;;;;5047900;28;20621;-62
2023/07/25 07:16:15;;;;;;;7.00;6.37;;;18.80;99.90;;;;;;5058813;28;20632;-62
2023/07/25 07:18:43;;;;;;;14.73;12.70;;;18.80;99.90;;;;;;5060907;28;20488;-62
2023/07/25 07:21:10;;;;;;;8.80;7.17;;;18.80;99.90;;;;;;5071845;28;20919;-63
2023/07/25 07:23:37;;;;;;;12.93;8.17;;;19.00;99.90;;;;;;5074146;28;20513;-62
2023/07/25 07:26:06;;;;;;;9.10;5.93;;;19.20;99.90;;;;;;5075332;28;20478;-63
2023/07/25 07:28:33;;;;;;;7.50;6.77;;;19.40;99.90;;;;;;5042643;28;20473;-62
2023/07/25 07:30:59;;;;;;;6.80;5.67;;;19.50;99.90;;;;;;5061899;28;20507;-63
2023/07/25 07:33:26;;;;;;;11.23;7.20;;;19.50;99.90;;;;;;5077105;28;20470;-62
2023/07/25 07:35:53;;;;;;;7.63;6.60;;;19.60;99.90;;;;;;5074033;28;20930;-62
2023/07/25 07:38:20;;;;;;;7.33;6.30;;;19.70;99.90;;;;;;5069969;28;20495;-63
2023/07/25 07:40:47;;;;;;;9.17;7.63;;;19.80;99.90;;;;;;5069030;28;20587;-62
2023/07/25 07:43:16;;;;;;;6.93;6.13;;;20.00;99.90;;;;;;5054896;28;20503;-62
2023/07/25 07:45:43;;;;;;;9.53;7.07;;;19.90;99.90;;;;;;5036402;28;20499;-61
2023/07/25 07:48:10;;;;;;;7.20;5.53;;;19.90;99.90;;;;;;5060158;28;20517;-62
2023/07/25 07:50:37;;;;;;;8.27;7.30;;;19.90;99.90;;;;;;5072296;28;20766;-62
2023/07/25 07:53:04;;;;;;;5.17;4.63;;;19.80;99.90;;;;;;5070788;28;20702;-62
2023/07/25 07:55:31;;;;;;;8.87;5.97;;;19.70;99.90;;;;;;5066331;28;20894;-62
2023/07/25 07:57:58;;;;;;;6.50;5.03;;;19.40;99.90;;;;;;5042549;28;20708;-61
2023/07/25 08:00:26;;;;;;;5.70;5.10;;;19.50;99.90;;;;;;5066663;28;20485;-61
2023/07/25 08:02:53;;;;;;;6.40;4.70;;;19.30;99.90;;;;;;5063357;28;21160;-61
2023/07/25 08:05:20;;;;;;;9.53;6.33;;;19.20;99.90;;;;;;5045975;28;20875;-61
2023/07/25 08:07:47;;;;;;;14.33;8.33;;;19.10;99.90;;;;;;5071302;28;20501;-61
2023/07/25 08:10:14;;;;;;;7.87;4.70;;;19.10;99.90;;;;;;5071530;28;20487;-61
2023/07/25 08:12:41;;;;;;;11.13;8.23;;;19.10;99.90;;;;;;5072913;28;20474;-61
2023/07/25 08:15:08;;;;;;;10.93;6.37;;;19.20;99.90;;;;;;5071271;28;20477;-60
2023/07/25 08:17:36;;;;;;;10.37;7.10;;;19.20;99.90;;;;;;5073992;28;20475;-61
2023/07/25 08:20:04;;;;;;;5.90;4.60;;;19.20;99.90;;;;;;5072402;28;20477;-61
2023/07/25 08:22:31;;;;;;;5.73;5.23;;;19.20;99.90;;;;;;5073639;28;20482;-61
2023/07/25 08:24:58;;;;;;;8.07;5.93;;;19.00;99.90;;;;;;5073310;28;20476;-63
2023/07/25 08:27:25;;;;;;;7.27;6.30;;;18.90;99.90;;;;;;5075785;28;21012;-61
2023/07/25 08:29:52;;;;;;;8.40;6.30;;;18.90;99.90;;;;;;5072363;28;20476;-62
2023/07/25 08:32:19;;;;;;;5.20;4.10;;;19.00;99.90;;;;;;5075515;28;20485;-62
2023/07/25 08:34:47;;;;;;;13.40;8.00;;;18.90;99.90;;;;;;5071906;28;20486;-61
2023/07/25 08:37:14;;;;;;;7.23;4.70;;;18.90;99.90;;;;;;5073220;28;20480;-61
2023/07/25 08:39:41;;;;;;;8.33;6.83;;;18.90;99.90;;;;;;5073491;28;20483;-61
2023/07/25 08:42:11;;;;;;;7.30;3.53;;;18.90;99.90;;;;;;5054110;28;20756;-61
2023/07/25 08:44:40;;;;;;;8.60;4.10;;;18.90;99.90;;;;;;5054918;28;20485;-61
2023/07/25 08:47:16;;;;;;;4.97;2.97;;;18.90;99.90;;;;;;5072271;28;20482;-61
2023/07/25 08:49:48;;;;;;;13.93;7.80;;;18.80;99.90;;;;;;5038378;28;20989;-61
2023/07/25 08:52:17;;;;;;;6.87;3.90;;;18.90;99.90;;;;;;5039493;28;20560;-62
2023/07/25 08:54:47;;;;;;;9.93;6.87;;;19.00;99.90;;;;;;5066541;28;20493;-62
2023/07/25 08:57:16;;;;;;;6.13;5.20;;;19.00;99.90;;;;;;5070354;28;20474;-62
2023/07/25 08:59:44;;;;;;;10.57;7.40;;;19.10;99.90;;;;;;5044308;28;20492;-62
2023/07/25 09:02:12;;;;;;;4.27;3.40;;;19.20;99.90;;;;;;5045729;28;23201;-61
2023/07/25 09:04:39;;;;;;;8.30;6.33;;;19.20;99.90;;;;;;5060200;28;21066;-62
2023/07/25 09:07:08;;;;;;;5.40;4.60;;;19.20;99.90;;;;;;5042160;28;21437;-61
2023/07/25 09:09:34;;;;;;;9.20;4.90;;;19.30;99.90;;;;;;5054712;28;20484;-61
2023/07/25 09:12:01;;;;;;;3.90;3.30;;;19.30;99.90;;;;;;5067691;28;21008;-60
2023/07/25 09:14:28;;;;;;;4.23;3.77;;;19.30;99.90;;;;;;5066948;28;20482;-61
2023/07/25 09:16:55;;;;;;;6.50;5.20;;;19.40;99.90;;;;;;5041206;28;20620;-62
2023/07/25 09:19:22;;;;;;;5.23;4.03;;;19.40;99.90;;;;;;5066911;28;20523;-62
2023/07/25 09:21:51;;;;;;;5.80;4.30;;;19.50;99.90;;;;;;5053137;28;20466;-62
2023/07/25 09:24:19;;;;;;;5.03;4.30;;;19.60;99.90;;;;;;5032822;28;20564;-61
2023/07/25 09:26:49;;;;;;;8.90;7.03;;;19.60;99.90;;;;;;5023763;28;20474;-62
2023/07/25 09:29:17;;;;;;;5.60;4.13;;;19.70;99.90;;;;;;5064053;28;20512;-62
2023/07/25 09:31:45;;;;;;;8.40;6.03;;;19.90;99.90;;;;;;5063965;28;20501;-62
2023/07/25 09:34:17;;;;;;;8.60;5.03;;;20.00;99.90;;;;;;5056275;28;20869;-62
2023/07/25 09:36:48;;;;;;;9.90;6.90;;;20.20;99.90;;;;;;5062152;28;20853;-62
2023/07/25 09:39:15;;;;;;;4.80;4.13;;;20.30;99.90;;;;;;5072538;28;20481;-62
2023/07/25 09:41:45;;;;;;;7.50;6.23;;;20.50;99.90;;;;;;5069041;28;20876;-62
2023/07/25 09:44:12;;;;;;;5.93;4.80;;;20.70;99.90;;;;;;5074213;28;20576;-62
2023/07/25 09:46:40;;;;;;;6.50;5.83;;;21.00;99.90;;;;;;5069390;28;20679;-62
2023/07/25 09:49:06;;;;;;;4.40;3.53;;;21.20;99.90;;;;;;5073994;28;20486;-63
2023/07/25 09:51:33;;;;;;;5.77;4.50;;;21.40;99.90;;;;;;5047797;28;20590;-63
2023/07/25 09:54:05;;;;;;;4.30;3.83;;;21.60;99.90;;;;;;5055004;28;21209;-62
2023/07/25 09:56:32;;;;;;;8.57;5.17;;;21.90;99.90;;;;;;5061563;28;20475;-63
2023/07/25 09:59:00;;;;;;;3.80;3.40;;;21.90;99.90;;;;;;5064446;28;20480;-62
2023/07/25 10:01:28;;;;;;;4.00;3.43;;;21.90;99.90;;;;;;5037728;28;21044;-62
2023/07/25 10:03:56;;;;;;;4.20;3.80;;;21.90;99.90;;;;;;5063372;28;20446;-62
2023/07/25 10:06:23;;;;;;;5.37;4.87;;;21.90;99.90;;;;;;5068651;28;20961;-62
2023/07/25 10:08:51;;;;;;;7.23;5.67;;;21.90;99.90;;;;;;5051138;28;20486;-62
2023/07/25 10:11:18;;;;;;;5.07;4.33;;;22.00;99.90;;;;;;5052438;28;20503;-62
2023/07/25 10:13:45;;;;;;;7.80;7.00;;;22.00;99.90;;;;;;5068556;28;20477;-62
2023/07/25 10:16:14;;;;;;;6.93;5.27;;;21.90;99.90;;;;;;5069233;28;20517;-62
2023/07/25 10:18:41;;;;;;;6.80;6.10;;;21.90;99.90;;;;;;5047687;28;21432;-62
2023/07/25 10:21:10;;;;;;;6.00;4.27;;;22.00;99.90;;;;;;5053043;28;20485;-62
2023/07/25 10:23:37;;;;;;;6.57;5.70;;;22.00;99.90;;;;;;5047170;28;20508;-62
2023/07/25 10:26:12;;;;;;;5.63;4.90;;;22.10;99.90;;;;;;5056951;28;20466;-62
2023/07/25 10:28:39;;;;;;;8.53;6.73;;;22.20;99.90;;;;;;5050770;28;20871;-63
2023/07/25 10:31:07;;;;;;;4.70;4.20;;;22.20;99.90;;;;;;5024420;28;20675;-61
2023/07/25 10:33:39;;;;;;;4.93;4.43;;;22.20;99.90;;;;;;5040486;28;20947;-61
2023/07/25 10:36:06;;;;;;;4.23;3.87;;;22.30;99.90;;;;;;5021626;28;20817;-62
2023/07/25 10:38:35;;;;;;;4.50;4.00;;;22.30;99.90;;;;;;5040588;28;20468;-62
2023/07/25 10:41:10;;;;;;;4.90;4.40;;;22.20;99.70;;;;;;5037478;28;20484;-61
2023/07/25 10:43:55;;;;;;;7.73;6.87;;;22.20;99.90;;;;;;5041866;28;20480;-62
2023/07/25 10:46:23;;;;;;;5.23;3.60;;;22.10;99.70;;;;;;5048237;28;20474;-62
2023/07/25 10:48:53;;;;;;;5.77;5.17;;;22.10;99.60;;;;;;5065267;28;20488;-62
2023/07/25 10:51:21;;;;;;;6.33;4.30;;;22.20;99.90;;;;;;5057388;28;20584;-62
2023/07/25 10:54:09;;;;;;;9.60;7.10;;;22.20;99.80;;;;;;5063729;28;20477;-62
2023/07/25 10:56:36;;;;;;;8.53;6.47;;;22.10;99.70;;;;;;5039795;28;20469;-62
2023/07/25 10:59:10;;;;;;;4.67;4.27;;;22.10;99.80;;;;;;5046475;28;20490;-62
2023/07/25 11:01:43;;;;;;;5.37;4.57;;;22.20;99.80;;;;;;5065461;28;20482;-62
2023/07/25 11:04:31;;;;;;;6.57;5.30;;;22.20;99.60;;;;;;5069363;28;20646;-62
2023/07/25 11:06:59;;;;;;;4.10;3.53;;;22.20;99.50;;;;;;5039980;28;20571;-62
2023/07/25 11:09:27;;;;;;;4.00;3.60;;;22.10;98.90;;;;;;5070455;28;20474;-62
2023/07/25 11:11:55;;;;;;;5.33;4.83;;;22.10;99.00;;;;;;5065940;28;20487;-62
2023/07/25 11:14:23;;;;;;;6.70;5.47;;;22.00;97.70;;;;;;5064534;28;20481;-62
2023/07/25 11:16:52;;;;;;;6.63;5.93;;;21.80;97.10;;;;;;5063381;28;20474;-62
2023/07/25 11:19:21;;;;;;;5.40;4.70;;;21.60;97.20;;;;;;5055626;28;20470;-62
2023/07/25 11:21:50;;;;;;;7.07;6.00;;;21.30;98.00;;;;;;5064702;28;20488;-62
2023/07/25 11:24:19;;;;;;;6.00;5.40;;;21.20;98.20;;;;;;5046370;28;20831;-62
2023/07/25 11:26:46;;;;;;;7.37;6.53;;;20.20;98.20;;;;;;5065161;28;20484;-62
2023/07/25 11:29:14;;;;;;;4.83;4.33;;;20.80;98.40;;;;;;5076072;28;20470;-62
2023/07/25 11:31:47;;;;;;;6.10;5.50;;;20.70;99.50;;;;;;5033610;28;20491;-62
2023/07/25 11:34:15;;;;;;;9.03;6.00;;;20.60;99.90;;;;;;5056986;28;20754;-62
2023/07/25 11:36:43;;;;;;;8.20;7.30;;;20.60;99.40;;;;;;5034638;28;20575;-62
2023/07/25 11:39:13;;;;;;;5.93;5.33;;;20.50;99.90;;;;;;5049172;28;20499;-62
2023/07/25 11:41:41;;;;;;;5.73;5.13;;;20.40;99.90;;;;;;5050146;28;20835;-62
2023/07/25 11:44:10;;;;;;;8.10;5.60;;;20.20;99.90;;;;;;5058009;28;20488;-62
2023/07/25 11:46:39;;;;;;;7.57;6.80;;;20.00;99.90;;;;;;5073189;28;20488;-62
2023/07/25 11:49:06;;;;;;;8.27;7.47;;;19.80;99.90;;;;;;5039237;28;21001;-62
2023/07/25 11:51:34;;;;;;;6.10;5.50;;;19.70;99.90;;;;;;5062968;28;20485;-62
2023/07/25 11:54:01;;;;;;;7.00;5.80;;;19.50;99.90;;;;;;5071288;28;21041;-62
2023/07/25 11:56:29;;;;;;;5.97;5.00;;;19.50;99.90;;;;;;5068488;28;20479;-62
2023/07/25 11:58:57;;;;;;;8.10;6.50;;;19.40;99.90;;;;;;5078180;28;20519;-63
2023/07/25 12:01:29;;;;;;;8.97;5.37;;;19.30;99.90;;;;;;5046695;28;20691;-62
2023/07/25 12:03:56;;;;;;;6.93;5.80;;;19.30;99.90;;;;;;5059996;28;20510;-62
2023/07/25 12:06:30;;;;;;;6.20;5.40;;;19.20;99.90;;;;;;5070793;28;20480;-62
2023/07/25 12:08:57;;;;;;;6.10;5.50;;;19.30;99.90;;;;;;5074159;28;20489;-62
2023/07/25 12:11:24;;;;;;;13.70;5.97;;;19.30;99.90;;;;;;5054016;28;20502;-62
2023/07/25 12:13:55;;;;;;;7.50;6.13;;;19.30;99.90;;;;;;5072654;28;20563;-61
2023/07/25 12:16:27;;;;;;;5.37;3.90;;;19.00;99.90;;;;;;5071353;28;20552;-61
2023/07/25 12:18:55;;;;;;;6.17;4.60;;;18.70;99.90;;;;;;5069396;28;20616;-62
2023/07/25 12:21:24;;;;;;;7.30;5.50;;;18.40;99.90;;;;;;5051339;28;20488;-62
2023/07/25 12:23:53;;;;;;;9.13;5.80;;;18.10;99.90;;;;;;5054753;28;20767;-62
2023/07/25 12:26:21;;;;;;;5.20;4.33;;;18.10;99.90;;;;;;5060950;28;20919;-62
2023/07/25 12:28:49;;;;;;;9.63;7.13;;;18.00;99.90;;;;;;5073922;28;20488;-62
2023/07/25 12:31:18;;;;;;;10.20;5.07;;;18.00;99.90;;;;;;5064212;28;20497;-62
2023/07/25 12:33:47;;;;;;;7.47;5.77;;;17.90;99.90;;;;;;5052227;28;20560;-62
2023/07/25 12:36:15;;;;;;;8.27;5.90;;;17.90;99.90;;;;;;5066093;28;20475;-62
2023/07/25 12:38:42;;;;;;;10.60;8.30;;;18.00;99.90;;;;;;5078147;28;20490;-61
2023/07/25 12:41:09;;;;;;;5.17;4.67;;;18.00;99.90;;;;;;5070694;28;20489;-62
2023/07/25 12:43:36;;;;;;;10.83;6.80;;;18.00;99.90;;;;;;5073481;28;20487;-62